Time;durP1;ratioP1;P1;durP2;ratioP2;P2;SDS_P1;SDS_P2;PMS_P1;PMS_P2;Temp;Humidity;BMP_temperature;BMP_pressure;BME280_temperature;BME280_humidity;BME280_pressure;Samples;Min_cycle;Max_cycle;Signal;HPM_P1;HPM_P2
2021/04/07 00:01:45;;;;;;;12.25;1.63;;;0.80;99.90;;;;;;5033927;28;20485;-82
2021/04/07 00:04:11;;;;;;;9.70;1.20;;;0.80;99.90;;;;;;5033911;28;20476;-83
2021/04/07 00:06:39;;;;;;;10.68;1.70;;;0.70;99.90;;;;;;5048957;28;20025;-82
2021/04/07 00:09:05;;;;;;;11.63;2.53;;;0.70;99.90;;;;;;5032731;28;20500;-83
2021/04/07 00:11:31;;;;;;;7.68;1.50;;;0.60;99.90;;;;;;5032483;28;20017;-82
2021/04/07 00:13:58;;;;;;;7.25;1.10;;;0.60;99.90;;;;;;5033758;28;20395;-82
2021/04/07 00:16:25;;;;;;;11.48;1.20;;;0.60;99.90;;;;;;5046860;28;20045;-83
2021/04/07 00:18:50;;;;;;;5.22;1.17;;;0.60;99.90;;;;;;5031315;28;20064;-82
2021/04/07 00:21:17;;;;;;;7.60;1.00;;;0.60;99.90;;;;;;5032380;28;20049;-83
2021/04/07 00:23:42;;;;;;;8.80;1.30;;;0.60;99.90;;;;;;5033613;28;20024;-83
2021/04/07 00:26:08;;;;;;;5.57;0.98;;;0.60;99.90;;;;;;5032383;28;20293;-83
2021/04/07 00:28:33;;;;;;;8.07;1.30;;;0.60;99.90;;;;;;5033256;28;20017;-82
2021/04/07 00:30:59;;;;;;;6.55;1.30;;;0.50;99.90;;;;;;5033348;28;20026;-83
2021/04/07 00:33:25;;;;;;;10.30;1.33;;;0.50;99.90;;;;;;5032139;28;20021;-83
2021/04/07 00:35:50;;;;;;;8.40;1.27;;;0.50;99.90;;;;;;5030933;28;20037;-83
2021/04/07 00:38:16;;;;;;;8.43;1.40;;;0.50;99.90;;;;;;5032124;28;20109;-83
2021/04/07 00:40:42;;;;;;;8.35;1.50;;;0.50;99.90;;;;;;5031916;28;20024;-83
2021/04/07 00:43:08;;;;;;;10.93;2.45;;;0.60;99.90;;;;;;5031702;28;20049;-83
2021/04/07 00:45:33;;;;;;;12.57;1.38;;;0.60;99.90;;;;;;5033082;28;20033;-83
2021/04/07 00:48:00;;;;;;;14.82;1.50;;;0.70;99.90;;;;;;5031862;28;20014;-83
2021/04/07 00:50:28;;;;;;;12.02;1.55;;;0.70;99.90;;;;;;5033114;28;20032;-82
2021/04/07 00:52:54;;;;;;;7.00;1.55;;;0.80;99.90;;;;;;5030587;28;20459;-83
2021/04/07 00:55:23;;;;;;;14.20;1.55;;;0.90;99.90;;;;;;5031499;28;20473;-83
2021/04/07 00:57:49;;;;;;;12.77;1.17;;;1.00;99.90;;;;;;5029639;28;20386;-83
2021/04/07 01:00:16;;;;;;;15.77;2.00;;;1.00;99.90;;;;;;5031752;28;20436;-83
2021/04/07 01:02:41;;;;;;;12.02;1.77;;;0.90;99.90;;;;;;5032763;28;20020;-83
2021/04/07 01:05:09;;;;;;;5.95;1.80;;;0.90;99.90;;;;;;5030760;28;20021;-83
2021/04/07 01:07:35;;;;;;;6.18;1.67;;;0.90;99.90;;;;;;5031726;28;20028;-83
2021/04/07 01:10:00;;;;;;;5.78;1.30;;;0.90;99.90;;;;;;5045247;28;20029;-83
2021/04/07 01:12:26;;;;;;;5.90;0.98;;;0.90;99.90;;;;;;5032647;28;20041;-83
2021/04/07 01:14:52;;;;;;;7.60;1.10;;;0.90;99.90;;;;;;5031117;28;20053;-83
2021/04/07 01:17:19;;;;;;;5.05;1.10;;;0.90;99.90;;;;;;5031364;28;20044;-83
2021/04/07 01:19:45;;;;;;;5.10;1.08;;;1.00;99.90;;;;;;5031360;28;20531;-83
2021/04/07 01:22:13;;;;;;;8.20;2.05;;;1.00;99.90;;;;;;5032204;28;20096;-83
2021/04/07 01:24:39;;;;;;;9.07;1.70;;;1.00;99.90;;;;;;5032378;28;20025;-83
2021/04/07 01:27:05;;;;;;;3.63;1.10;;;1.00;99.90;;;;;;5032283;28;20021;-83
2021/04/07 01:29:30;;;;;;;5.78;1.17;;;1.00;99.90;;;;;;5032421;28;20044;-83
2021/04/07 01:31:57;;;;;;;6.60;1.60;;;1.10;99.90;;;;;;5031092;28;20453;-83
2021/04/07 01:34:30;;;;;;;5.38;0.90;;;1.10;99.90;;;;;;5028320;28;20496;-83
2021/04/07 01:36:57;;;;;;;5.88;1.08;;;1.10;99.90;;;;;;5032409;28;20036;-83
2021/04/07 01:39:25;;;;;;;4.32;0.80;;;1.10;99.90;;;;;;5028172;28;20036;-83
2021/04/07 01:41:51;;;;;;;4.82;0.90;;;1.10;99.90;;;;;;5030920;28;20045;-83
2021/04/07 01:44:18;;;;;;;4.20;0.68;;;1.10;99.90;;;;;;5030706;28;20026;-83
2021/04/07 01:46:45;;;;;;;2.08;0.55;;;1.10;99.90;;;;;;5030946;28;20071;-83
2021/04/07 01:49:12;;;;;;;4.53;0.85;;;0.90;99.90;;;;;;5032108;28;20033;-83
2021/04/07 01:51:38;;;;;;;1.83;0.60;;;0.80;99.90;;;;;;5030776;28;20469;-83
2021/04/07 01:54:05;;;;;;;2.38;0.50;;;0.80;99.90;;;;;;5028101;28;20033;-83
2021/04/07 01:56:31;;;;;;;4.47;1.05;;;0.70;99.90;;;;;;5032016;28;20025;-83
2021/04/07 01:59:05;;;;;;;1.92;0.75;;;0.60;99.90;;;;;;5030591;28;20388;-83
2021/04/07 02:01:31;;;;;;;4.75;0.90;;;0.60;99.90;;;;;;5028965;28;20121;-83
2021/04/07 02:03:57;;;;;;;3.30;0.88;;;0.60;99.90;;;;;;5030635;28;20459;-84
2021/04/07 02:06:22;;;;;;;5.50;1.05;;;0.60;99.90;;;;;;5031761;28;20504;-82
2021/04/07 02:08:48;;;;;;;5.25;1.23;;;0.60;99.90;;;;;;5030537;28;20053;-82
2021/04/07 02:11:15;;;;;;;3.20;1.20;;;0.60;99.90;;;;;;5031882;28;20031;-82
2021/04/07 02:13:40;;;;;;;9.23;2.05;;;0.60;99.90;;;;;;5031503;28;20118;-81
2021/04/07 02:16:13;;;;;;;8.15;0.88;;;0.70;99.90;;;;;;5044321;28;20521;-82
2021/04/07 02:18:40;;;;;;;7.72;1.33;;;0.70;99.90;;;;;;5031821;28;20052;-82
2021/04/07 02:21:06;;;;;;;7.57;1.38;;;0.60;99.90;;;;;;5046188;28;20112;-82
2021/04/07 02:23:32;;;;;;;11.23;1.98;;;0.70;99.90;;;;;;5030552;28;20026;-81
2021/04/07 02:25:59;;;;;;;13.85;1.83;;;0.70;99.90;;;;;;5031805;28;20419;-82
2021/04/07 02:28:25;;;;;;;14.95;3.47;;;0.70;99.90;;;;;;5016655;28;20531;-82
2021/04/07 02:30:50;;;;;;;11.48;3.08;;;0.70;99.90;;;;;;5030398;28;20037;-82
2021/04/07 02:33:17;;;;;;;11.85;5.18;;;0.70;99.90;;;;;;5031699;28;20021;-82
2021/04/07 02:35:42;;;;;;;14.30;6.50;;;0.80;99.90;;;;;;5047609;28;20022;-82
2021/04/07 02:38:08;;;;;;;14.20;6.38;;;0.80;99.90;;;;;;5035626;28;20038;-82
2021/04/07 02:40:34;;;;;;;14.57;6.80;;;0.80;99.90;;;;;;5035453;28;20076;-83
2021/04/07 02:43:00;;;;;;;17.02;7.43;;;0.80;99.90;;;;;;5034170;28;20540;-82
2021/04/07 02:45:26;;;;;;;15.90;7.70;;;0.80;99.90;;;;;;5048199;28;20033;-82
2021/04/07 02:47:51;;;;;;;16.08;6.85;;;0.80;99.90;;;;;;5034246;28;20546;-83
2021/04/07 02:50:17;;;;;;;15.73;6.68;;;0.80;99.90;;;;;;5048985;28;20033;-83
2021/04/07 02:52:42;;;;;;;17.10;6.45;;;0.90;99.90;;;;;;5035035;28;20017;-83
2021/04/07 02:55:08;;;;;;;13.00;5.78;;;0.90;99.90;;;;;;5033920;28;20473;-83
2021/04/07 02:57:34;;;;;;;9.10;4.50;;;0.90;99.90;;;;;;5035323;28;20049;-82
2021/04/07 02:59:59;;;;;;;13.50;5.47;;;0.80;99.90;;;;;;5047360;28;20061;-82
2021/04/07 03:02:25;;;;;;;14.98;4.63;;;0.80;99.90;;;;;;5033573;28;20021;-82
2021/04/07 03:04:50;;;;;;;10.95;4.68;;;0.80;99.90;;;;;;5032958;28;20017;-82
2021/04/07 03:07:16;;;;;;;14.35;4.43;;;0.80;99.90;;;;;;5033246;28;20477;-82
2021/04/07 03:09:41;;;;;;;14.18;4.13;;;0.80;99.90;;;;;;5033004;28;20068;-82
2021/04/07 03:12:07;;;;;;;13.23;4.50;;;0.70;99.90;;;;;;5034204;28;20033;-82
2021/04/07 03:14:33;;;;;;;15.05;4.28;;;0.80;99.90;;;;;;5047623;28;20025;-82
2021/04/07 03:16:58;;;;;;;16.08;5.88;;;0.80;99.90;;;;;;5032560;28;20061;-82
2021/04/07 03:19:24;;;;;;;12.55;3.63;;;0.80;99.90;;;;;;5043467;28;20108;-83
2021/04/07 03:21:49;;;;;;;9.85;2.78;;;0.80;99.90;;;;;;5034807;28;20025;-83
2021/04/07 03:24:15;;;;;;;7.72;2.67;;;0.90;99.90;;;;;;5033527;28;20029;-82
2021/04/07 03:26:41;;;;;;;5.38;1.85;;;0.90;99.90;;;;;;5033280;28;20098;-82
2021/04/07 03:29:06;;;;;;;7.25;2.03;;;1.00;99.90;;;;;;5033424;28;20033;-83
2021/04/07 03:31:32;;;;;;;6.18;1.40;;;1.00;99.90;;;;;;5047977;28;20029;-83
2021/04/07 03:33:57;;;;;;;9.30;2.05;;;0.90;99.90;;;;;;5033203;28;20366;-82
2021/04/07 03:36:23;;;;;;;8.98;1.40;;;0.90;99.90;;;;;;5034445;28;20105;-82
2021/04/07 03:38:48;;;;;;;7.47;1.40;;;0.90;99.90;;;;;;5018195;28;20034;-82
2021/04/07 03:41:14;;;;;;;10.82;2.03;;;0.90;99.90;;;;;;5033071;28;20038;-83
2021/04/07 03:43:39;;;;;;;6.72;1.20;;;0.90;99.90;;;;;;5033202;28;20030;-83
2021/04/07 03:46:05;;;;;;;8.30;1.60;;;0.90;99.90;;;;;;5033750;28;20029;-82
2021/04/07 03:48:31;;;;;;;9.23;1.58;;;0.90;99.90;;;;;;5047984;28;20083;-83
2021/04/07 03:50:59;;;;;;;12.23;2.83;;;0.90;99.90;;;;;;5033061;28;20026;-83
2021/04/07 03:53:25;;;;;;;14.38;2.22;;;0.90;99.90;;;;;;5044330;28;20021;-82
2021/04/07 03:55:54;;;;;;;14.75;1.95;;;0.90;99.90;;;;;;5032957;28;20025;-82
2021/04/07 03:58:21;;;;;;;14.18;3.03;;;0.90;99.90;;;;;;5034016;28;20025;-82
2021/04/07 04:00:46;;;;;;;14.93;2.75;;;0.90;99.90;;;;;;5047950;28;20026;-82
2021/04/07 04:03:12;;;;;;;12.45;3.45;;;0.80;99.90;;;;;;5032483;28;20030;-82
2021/04/07 04:05:39;;;;;;;13.23;2.65;;;0.70;99.90;;;;;;5033981;28;20562;-81
2021/04/07 04:08:06;;;;;;;13.93;2.67;;;0.70;99.90;;;;;;5032509;28;20025;-81
2021/04/07 04:10:32;;;;;;;14.63;2.97;;;0.70;99.90;;;;;;5033995;28;20021;-82
2021/04/07 04:12:58;;;;;;;14.23;2.78;;;0.70;99.90;;;;;;5033971;28;20171;-82
2021/04/07 04:15:24;;;;;;;14.38;3.90;;;0.80;99.90;;;;;;5033605;28;20501;-81
2021/04/07 04:17:50;;;;;;;16.13;3.65;;;0.80;99.90;;;;;;5033532;28;20025;-79
2021/04/07 04:20:16;;;;;;;13.23;3.53;;;0.70;99.90;;;;;;5034562;28;20025;-80
2021/04/07 04:22:43;;;;;;;9.48;3.03;;;0.70;99.90;;;;;;5033067;28;20022;-80
2021/04/07 04:25:11;;;;;;;14.73;4.07;;;0.70;99.90;;;;;;5049584;28;20033;-82
2021/04/07 04:27:38;;;;;;;16.50;3.67;;;0.70;99.90;;;;;;5033756;28;20021;-81
2021/04/07 04:30:08;;;;;;;19.40;3.92;;;0.60;99.90;;;;;;5033960;28;20025;-82
2021/04/07 04:32:34;;;;;;;17.30;3.70;;;0.70;99.90;;;;;;5031098;28;20362;-80
2021/04/07 04:35:00;;;;;;;18.30;3.67;;;0.60;99.90;;;;;;5032374;28;20477;-82
2021/04/07 04:37:25;;;;;;;21.73;4.28;;;0.60;99.90;;;;;;5033438;28;20021;-81
2021/04/07 04:39:51;;;;;;;12.57;4.13;;;0.60;99.90;;;;;;5033377;28;20061;-82
2021/04/07 04:42:17;;;;;;;19.67;4.30;;;0.70;99.90;;;;;;5033231;28;20069;-81
2021/04/07 04:44:43;;;;;;;13.15;3.25;;;0.70;99.90;;;;;;5033156;28;20025;-82
2021/04/07 04:47:08;;;;;;;11.07;3.38;;;0.70;99.90;;;;;;5032056;28;20389;-82
2021/04/07 04:49:34;;;;;;;6.95;2.25;;;0.70;99.90;;;;;;5031813;28;20022;-81
2021/04/07 04:51:59;;;;;;;8.35;2.33;;;0.80;99.90;;;;;;5046745;28;20029;-81
2021/04/07 04:54:25;;;;;;;11.65;2.85;;;0.80;99.90;;;;;;5033195;28;20474;-81
2021/04/07 04:56:50;;;;;;;9.27;2.65;;;0.80;99.90;;;;;;5032262;28;20037;-82
2021/04/07 04:59:16;;;;;;;11.85;3.13;;;0.80;99.90;;;;;;5046203;28;20124;-82
2021/04/07 05:01:42;;;;;;;15.20;3.72;;;0.80;99.90;;;;;;5031450;28;20465;-82
2021/04/07 05:04:07;;;;;;;7.03;2.83;;;0.90;99.90;;;;;;5047083;28;20473;-82
2021/04/07 05:06:36;;;;;;;10.93;3.88;;;0.90;99.90;;;;;;5031486;28;20013;-82
2021/04/07 05:09:04;;;;;;;10.60;3.80;;;0.90;99.90;;;;;;5032759;28;20017;-82
2021/04/07 05:11:32;;;;;;;10.55;3.97;;;0.90;99.90;;;;;;5045390;28;20037;-82
2021/04/07 05:13:58;;;;;;;9.80;3.50;;;0.90;99.90;;;;;;5029739;28;20146;-82
2021/04/07 05:16:23;;;;;;;16.63;5.05;;;0.80;99.90;;;;;;5031347;28;20025;-82
2021/04/07 05:18:49;;;;;;;13.98;5.10;;;0.80;99.90;;;;;;5029749;28;20068;-82
2021/04/07 05:21:14;;;;;;;14.38;4.60;;;0.80;99.90;;;;;;5031075;28;20072;-82
2021/04/07 05:23:40;;;;;;;10.65;3.90;;;0.80;99.90;;;;;;5027566;28;20362;-82
2021/04/07 05:26:05;;;;;;;11.77;4.30;;;0.80;99.90;;;;;;5012113;28;20026;-81
2021/04/07 05:28:31;;;;;;;10.45;5.00;;;0.70;99.90;;;;;;5013732;28;20473;-81
2021/04/07 05:31:02;;;;;;;11.75;5.53;;;0.70;99.90;;;;;;5028714;28;20037;-81
2021/04/07 05:33:30;;;;;;;11.20;7.07;;;0.70;99.90;;;;;;5031520;28;20029;-81
2021/04/07 05:35:57;;;;;;;12.25;7.50;;;0.60;99.90;;;;;;5031976;28;20465;-81
2021/04/07 05:38:23;;;;;;;16.35;9.23;;;0.60;99.90;;;;;;5033295;28;20033;-83
2021/04/07 05:40:51;;;;;;;16.63;10.13;;;0.60;99.90;;;;;;5033526;28;20025;-84
2021/04/07 05:43:17;;;;;;;14.32;10.20;;;0.60;99.90;;;;;;5032067;28;20045;-84
2021/04/07 05:45:42;;;;;;;15.00;9.45;;;0.60;99.90;;;;;;5032075;28;20377;-83
2021/04/07 05:48:09;;;;;;;14.48;9.07;;;0.70;99.90;;;;;;5031710;28;20021;-83
2021/04/07 05:50:43;;;;;;;13.70;7.13;;;0.80;99.90;;;;;;5031838;28;20475;-82
2021/04/07 05:53:09;;;;;;;16.63;7.70;;;0.80;99.90;;;;;;5031914;28;20033;-83
2021/04/07 05:55:35;;;;;;;15.35;7.65;;;0.80;99.90;;;;;;5031728;28;20033;-83
2021/04/07 05:58:05;;;;;;;9.75;6.38;;;0.80;99.90;;;;;;5033009;28;20037;-82
2021/04/07 06:00:31;;;;;;;11.38;6.53;;;0.70;99.90;;;;;;5033239;28;20025;-83
2021/04/07 06:02:59;;;;;;;9.73;6.22;;;0.70;99.90;;;;;;5033047;28;20087;-82
2021/04/07 06:05:28;;;;;;;7.65;6.20;;;0.60;99.90;;;;;;5031313;28;20021;-83
2021/04/07 06:07:55;;;;;;;11.68;6.25;;;0.70;99.90;;;;;;5031311;28;20084;-83
2021/04/07 06:10:20;;;;;;;7.57;5.15;;;0.80;99.90;;;;;;5031765;28;20030;-83
2021/04/07 06:12:46;;;;;;;7.38;4.88;;;0.80;99.90;;;;;;5032971;28;20021;-83
2021/04/07 06:15:13;;;;;;;9.00;5.40;;;0.80;99.90;;;;;;5027563;28;20473;-83
2021/04/07 06:17:39;;;;;;;9.27;5.38;;;0.80;99.90;;;;;;5013214;28;20073;-84
2021/04/07 06:20:07;;;;;;;7.20;4.60;;;0.80;99.90;;;;;;5011699;28;20032;-84
2021/04/07 06:22:32;;;;;;;10.57;5.10;;;0.80;99.90;;;;;;5012100;28;20033;-83
2021/04/07 06:24:58;;;;;;;7.03;4.35;;;0.80;99.90;;;;;;5011822;28;20030;-83
2021/04/07 06:27:23;;;;;;;7.88;4.28;;;0.80;99.90;;;;;;5011816;28;20060;-83
2021/04/07 06:29:49;;;;;;;5.13;3.60;;;0.90;99.90;;;;;;5011845;28;20045;-83
2021/04/07 06:32:14;;;;;;;5.72;4.00;;;0.80;99.90;;;;;;5013015;28;20029;-84
2021/04/07 06:34:40;;;;;;;6.75;3.90;;;0.80;99.90;;;;;;5013043;28;20080;-83
2021/04/07 06:37:05;;;;;;;7.90;4.35;;;0.90;99.90;;;;;;5013067;28;20026;-85
2021/04/07 06:39:31;;;;;;;7.28;4.93;;;0.90;99.90;;;;;;5011554;28;20040;-84
2021/04/07 06:41:57;;;;;;;7.70;5.22;;;0.90;99.90;;;;;;5011478;28;20137;-83
2021/04/07 06:44:22;;;;;;;10.38;5.93;;;0.90;99.90;;;;;;5022373;28;20025;-83
2021/04/07 06:46:52;;;;;;;9.15;6.28;;;1.00;99.90;;;;;;5014119;28;20048;-84
2021/04/07 06:49:18;;;;;;;;;;;1.00;99.90;;;;;;5027930;28;20382;-84
2021/04/07 06:51:44;;;;;;;15.13;7.07;;;1.00;99.90;;;;;;5031139;28;19911;-85
2021/04/07 06:54:10;;;;;;;13.20;7.55;;;1.00;99.90;;;;;;5031287;28;20029;-85
2021/04/07 06:56:36;;;;;;;11.02;7.03;;;1.10;99.90;;;;;;5032033;28;20032;-85
2021/04/07 06:59:03;;;;;;;8.90;6.68;;;1.10;99.90;;;;;;5025313;28;20021;-85
2021/04/07 07:01:31;;;;;;;13.80;8.20;;;1.10;99.90;;;;;;5030593;28;20075;-84
2021/04/07 07:03:57;;;;;;;13.02;8.50;;;1.20;99.90;;;;;;5032000;28;20441;-85
2021/04/07 07:06:23;;;;;;;14.43;8.88;;;1.30;99.90;;;;;;5025107;28;20041;-84
2021/04/07 07:08:50;;;;;;;15.50;8.85;;;1.40;99.90;;;;;;5030492;28;20022;-85
2021/04/07 07:11:16;;;;;;;15.90;9.25;;;1.40;99.90;;;;;;5007565;28;20034;-84
2021/04/07 07:13:43;;;;;;;16.00;9.15;;;1.50;99.90;;;;;;5011681;28;20583;-84
2021/04/07 07:16:23;;;;;;;17.38;9.07;;;1.60;99.90;;;;;;5009457;28;20025;-85
2021/04/07 07:18:52;;;;;;;19.98;10.82;;;1.70;99.90;;;;;;5030448;28;20079;-85
2021/04/07 07:21:19;;;;;;;18.40;9.60;;;1.70;99.90;;;;;;5031771;28;20899;-85
2021/04/07 07:23:47;;;;;;;23.33;9.27;;;1.70;99.90;;;;;;5033914;28;20028;-85
2021/04/07 07:26:13;;;;;;;20.13;9.88;;;1.70;99.90;;;;;;5028541;28;20017;-85
2021/04/07 07:28:55;;;;;;;18.80;9.73;;;1.70;99.90;;;;;;5033934;28;20021;-85
2021/04/07 07:31:25;;;;;;;21.45;9.32;;;1.70;99.90;;;;;;5033737;28;20109;-85
2021/04/07 07:33:52;;;;;;;21.75;9.32;;;1.90;99.90;;;;;;5033943;28;20048;-85
2021/04/07 07:36:18;;;;;;;18.80;8.65;;;2.00;99.90;;;;;;5028161;28;20026;-85
2021/04/07 07:38:46;;;;;;;24.00;8.98;;;2.10;99.90;;;;;;5034980;28;20433;-85
2021/04/07 07:41:12;;;;;;;27.05;7.40;;;2.20;99.90;;;;;;5033380;28;20053;-85
2021/04/07 07:43:41;;;;;;;22.23;6.00;;;2.30;99.90;;;;;;5028143;28;20018;-85
2021/04/07 07:46:13;;;;;;;21.17;4.23;;;2.40;99.90;;;;;;5027747;28;20514;-85
2021/04/07 07:48:43;;;;;;;20.98;3.85;;;2.60;99.90;;;;;;5034812;28;20274;-85
2021/04/07 07:51:20;;;;;;;18.05;2.95;;;2.70;99.90;;;;;;5033616;28;20025;-85
2021/04/07 07:53:48;;;;;;;14.25;3.28;;;2.80;99.90;;;;;;5030090;28;20103;-85
2021/04/07 07:56:15;;;;;;;22.25;4.13;;;2.80;99.90;;;;;;5031529;28;20029;-85
2021/04/07 07:58:52;;;;;;;18.38;3.15;;;2.90;99.90;;;;;;5038986;28;20029;-85
2021/04/07 08:01:19;;;;;;;18.55;3.10;;;3.00;99.90;;;;;;5025115;28;20055;-86
2021/04/07 08:03:47;;;;;;;13.00;2.35;;;3.00;99.90;;;;;;5035174;28;20544;-85
2021/04/07 08:06:13;;;;;;;13.80;2.20;;;3.10;99.90;;;;;;5040678;28;20029;-86
2021/04/07 08:08:39;;;;;;;17.40;2.38;;;3.20;99.90;;;;;;5032999;28;20174;-86
2021/04/07 08:11:07;;;;;;;14.88;2.42;;;3.20;99.90;;;;;;5031612;28;20360;-86
2021/04/07 08:13:37;;;;;;;19.52;2.45;;;3.30;99.90;;;;;;5050270;28;20385;-86
2021/04/07 08:16:03;;;;;;;13.18;2.78;;;3.30;99.90;;;;;;5034869;28;20501;-87
2021/04/07 08:18:30;;;;;;;12.23;2.83;;;3.30;99.90;;;;;;5034747;28;20044;-83
2021/04/07 08:20:56;;;;;;;8.43;1.67;;;3.40;99.90;;;;;;5033358;28;20025;-87
2021/04/07 08:23:24;;;;;;;8.75;1.13;;;3.30;99.90;;;;;;5033729;28;20048;-84
2021/04/07 08:25:54;;;;;;;4.93;0.70;;;3.30;99.90;;;;;;5033220;28;20128;-87
2021/04/07 08:28:21;;;;;;;4.82;0.85;;;3.30;99.90;;;;;;5027760;28;20018;-88
2021/04/07 08:30:47;;;;;;;8.88;1.05;;;3.30;99.90;;;;;;5033524;28;20025;-88
2021/04/07 08:33:16;;;;;;;8.52;1.35;;;3.30;99.90;;;;;;5032558;28;20489;-89
2021/04/07 08:35:43;;;;;;;6.87;1.17;;;3.30;99.90;;;;;;5029958;28;20473;-90
2021/04/07 08:38:09;;;;;;;9.85;1.55;;;3.30;99.90;;;;;;5024913;28;20033;-90
2021/04/07 08:40:52;;;;;;;12.57;1.95;;;3.40;99.90;;;;;;5030207;28;20477;-87
2021/04/07 08:43:18;;;;;;;15.75;2.72;;;3.50;99.90;;;;;;5025643;28;20037;-89
2021/04/07 08:45:46;;;;;;;19.75;3.00;;;3.60;99.90;;;;;;5030060;28;20546;-89
2021/04/07 08:48:18;;;;;;;32.78;3.83;;;3.70;99.90;;;;;;5034573;28;20045;-89
2021/04/07 08:50:45;;;;;;;19.98;4.15;;;3.80;99.90;;;;;;5023622;28;20026;-88
2021/04/07 08:53:13;;;;;;;21.35;3.92;;;3.90;99.90;;;;;;5029861;28;20067;-89
2021/04/07 08:55:43;;;;;;;34.25;5.40;;;3.90;99.90;;;;;;5033344;28;20113;-89
2021/04/07 08:58:09;;;;;;;27.67;3.70;;;4.10;99.90;;;;;;5036277;28;20021;-89
2021/04/07 09:00:38;;;;;;;30.05;6.55;;;4.20;99.90;;;;;;5032249;28;20108;-89
2021/04/07 09:03:16;;;;;;;31.92;5.68;;;4.40;99.90;;;;;;5028080;28;20041;-88
2021/04/07 09:05:46;;;;;;;29.25;4.47;;;4.60;99.90;;;;;;5033820;28;20021;-89
2021/04/07 09:08:16;;;;;;;;;;;4.70;99.90;;;;;;5033894;28;20108;-88
2021/04/07 09:10:44;;;;;;;24.58;4.78;;;4.80;99.90;;;;;;5034676;28;19988;-89
2021/04/07 09:13:11;;;;;;;26.30;5.10;;;5.00;99.90;;;;;;5033586;28;20033;-90
2021/04/07 09:16:07;;;;;;;39.25;4.82;;;5.10;99.90;;;;;;5048168;28;20022;-91
2021/04/07 09:18:41;;;;;;;28.13;4.85;;;5.30;99.90;;;;;;5024378;28;20088;-89
2021/04/07 09:21:09;;;;;;;33.72;5.60;;;5.30;99.90;;;;;;5034015;28;20033;-89
2021/04/07 09:23:37;;;;;;;29.77;4.40;;;5.40;99.90;;;;;;5034056;28;20051;-89
2021/04/07 09:26:12;;;;;;;32.65;4.47;;;5.40;99.90;;;;;;5034210;28;20021;-89
2021/04/07 09:28:42;;;;;;;16.98;2.40;;;5.40;99.90;;;;;;5029825;28;20108;-88
2021/04/07 09:31:18;;;;;;;8.75;1.25;;;5.10;99.90;;;;;;5034332;28;20108;-89
2021/04/07 09:33:49;;;;;;;12.15;1.52;;;4.80;99.90;;;;;;5031963;28;20108;-87
2021/04/07 09:36:17;;;;;;;7.43;1.17;;;4.60;99.90;;;;;;5028070;28;20022;-87
2021/04/07 09:38:44;;;;;;;12.38;1.38;;;4.50;99.90;;;;;;5038065;28;20113;-87
2021/04/07 09:41:12;;;;;;;7.40;1.08;;;4.50;99.90;;;;;;5036362;28;20566;-87
2021/04/07 09:43:39;;;;;;;8.88;1.17;;;4.50;99.90;;;;;;5031186;28;20035;-89
2021/04/07 09:46:09;;;;;;;16.17;1.77;;;4.60;99.90;;;;;;5029540;28;20056;-89
2021/04/07 09:48:52;;;;;;;14.90;2.20;;;4.80;99.90;;;;;;5031134;28;20044;-89
2021/04/07 09:51:22;;;;;;;12.27;2.08;;;5.40;99.90;;;;;;5025637;28;20497;-88
2021/04/07 09:53:47;;;;;;;11.68;1.65;;;6.80;99.90;;;;;;5025958;28;20065;-88
2021/04/07 09:56:13;;;;;;;17.50;2.10;;;8.30;99.90;;;;;;5029960;28;20520;-87
2021/04/07 09:58:47;;;;;;;7.35;1.85;;;9.00;99.90;;;;;;5031611;28;20079;-89
2021/04/07 10:01:16;;;;;;;13.60;2.20;;;8.80;99.90;;;;;;5031499;28;20040;-89
2021/04/07 10:03:49;;;;;;;15.40;3.10;;;8.50;99.90;;;;;;5016331;28;20022;-89
2021/04/07 10:06:20;;;;;;;21.63;3.45;;;8.20;99.90;;;;;;5021085;28;20240;-89
2021/04/07 10:09:10;;;;;;;22.67;3.03;;;8.00;99.90;;;;;;4992225;28;20055;-90
2021/04/07 10:11:38;;;;;;;14.10;3.20;;;8.10;99.90;;;;;;5029056;28;20087;-88
2021/04/07 10:14:05;;;;;;;28.10;4.95;;;8.30;99.90;;;;;;5029347;28;20029;-87
2021/04/07 10:16:35;;;;;;;22.23;3.60;;;7.80;99.90;;;;;;5018389;28;20056;-87
2021/04/07 10:19:04;;;;;;;25.65;4.38;;;7.40;99.90;;;;;;5031381;28;20035;-87
2021/04/07 10:21:30;;;;;;;28.33;3.83;;;7.10;99.90;;;;;;5014157;28;21263;-87
2021/04/07 10:23:58;;;;;;;27.95;3.90;;;6.80;99.90;;;;;;5005192;28;20033;-87
2021/04/07 10:26:24;;;;;;;27.52;4.18;;;6.40;99.90;;;;;;5015901;28;20036;-84
2021/04/07 10:28:55;;;;;;;21.63;3.55;;;6.00;99.90;;;;;;5024629;28;20053;-83
2021/04/07 10:31:21;;;;;;;26.35;4.70;;;5.70;99.90;;;;;;5046905;28;20033;-84
2021/04/07 10:33:47;;;;;;;22.35;4.75;;;5.50;99.90;;;;;;5032420;28;20021;-85
2021/04/07 10:36:12;;;;;;;20.15;3.35;;;5.60;99.90;;;;;;5009796;28;21811;-84
2021/04/07 10:38:38;;;;;;;31.00;5.13;;;7.00;99.90;;;;;;5001219;28;20038;-84
2021/04/07 10:41:05;;;;;;;17.85;3.13;;;7.70;99.90;;;;;;4995375;28;20533;-85
2021/04/07 10:43:41;;;;;;;15.82;3.15;;;8.20;99.90;;;;;;5030669;28;20080;-85
2021/04/07 10:46:08;;;;;;;17.52;3.47;;;9.10;99.90;;;;;;5031967;28;20056;-85
2021/04/07 10:48:35;;;;;;;19.58;3.28;;;9.30;99.90;;;;;;5030789;28;20424;-85
2021/04/07 10:51:02;;;;;;;22.90;3.95;;;9.30;99.40;;;;;;5044681;28;20021;-85
2021/04/07 10:53:38;;;;;;;25.98;5.22;;;9.20;99.90;;;;;;5031256;28;20102;-84
2021/04/07 10:56:18;;;;;;;16.13;2.80;;;8.90;99.90;;;;;;5030474;28;20432;-86
2021/04/07 10:58:44;;;;;;;;;;;8.50;99.90;;;;;;5021268;28;20029;-87
2021/04/07 11:01:10;;;;;;;18.20;3.63;;;8.00;99.90;;;;;;5033917;28;19912;-85
2021/04/07 11:03:36;;;;;;;23.00;3.67;;;7.50;99.90;;;;;;5032015;28;20029;-86
2021/04/07 11:06:03;;;;;;;26.40;3.88;;;7.10;99.90;;;;;;5030914;28;20018;-86
2021/04/07 11:08:39;;;;;;;23.67;4.20;;;6.80;99.90;;;;;;5032803;28;20485;-87
2021/04/07 11:11:06;;;;;;;18.77;3.17;;;6.50;99.90;;;;;;5049789;28;20477;-87
2021/04/07 11:13:33;;;;;;;24.95;3.53;;;6.30;99.90;;;;;;5028206;28;20025;-86
2021/04/07 11:16:11;;;;;;;18.42;2.92;;;6.10;99.90;;;;;;5040547;28;20025;-87
2021/04/07 11:18:39;;;;;;;23.73;4.10;;;6.10;99.90;;;;;;5034681;28;20075;-87
2021/04/07 11:21:06;;;;;;;11.23;2.63;;;6.10;99.90;;;;;;5047740;28;20060;-86
2021/04/07 11:23:32;;;;;;;15.10;2.80;;;6.40;99.90;;;;;;5030602;28;20017;-85
2021/04/07 11:25:58;;;;;;;12.68;2.30;;;6.50;99.90;;;;;;5044489;28;20033;-85
2021/04/07 11:28:23;;;;;;;19.35;1.77;;;6.30;99.90;;;;;;5047640;28;20040;-85
2021/04/07 11:31:01;;;;;;;6.40;1.05;;;6.00;99.90;;;;;;5030733;28;20025;-85
2021/04/07 11:33:40;;;;;;;11.25;1.38;;;5.60;99.90;;;;;;5026136;28;20108;-86
2021/04/07 11:41:56;;;;;;;12.57;1.90;;;5.60;99.90;;;;;;5029504;28;20638;-87
2021/04/07 11:46:47;;;;;;;11.50;2.03;;;6.00;99.90;;;;;;5033777;28;20468;-87
2021/04/07 11:49:13;;;;;;;13.93;2.60;;;6.20;99.90;;;;;;5028561;28;20022;-87
2021/04/07 11:51:41;;;;;;;18.33;3.28;;;6.40;99.90;;;;;;5033896;28;20017;-87
2021/04/07 11:54:12;;;;;;;17.55;3.22;;;6.60;99.90;;;;;;5033887;28;20033;-86
2021/04/07 11:56:41;;;;;;;21.00;2.63;;;6.80;99.10;;;;;;5034017;28;20025;-86
2021/04/07 11:59:07;;;;;;;18.98;4.05;;;6.80;99.70;;;;;;5034374;28;20029;-86
2021/04/07 12:01:33;;;;;;;12.15;2.20;;;6.90;99.60;;;;;;5028675;28;20036;-87
2021/04/07 12:04:00;;;;;;;13.90;2.10;;;7.20;99.90;;;;;;5025033;28;20021;-87
2021/04/07 12:06:25;;;;;;;10.75;2.65;;;7.60;99.90;;;;;;5029054;28;20025;-88
2021/04/07 12:08:51;;;;;;;19.60;3.20;;;7.90;96.90;;;;;;5033317;28;20032;-87
2021/04/07 12:11:16;;;;;;;16.55;2.70;;;8.00;96.80;;;;;;5036861;28;20033;-84
2021/04/07 12:13:42;;;;;;;16.40;3.88;;;8.30;96.30;;;;;;5022507;28;20040;-86
2021/04/07 12:16:07;;;;;;;16.55;3.08;;;8.40;94.60;;;;;;5015119;28;20125;-87
2021/04/07 12:18:33;;;;;;;12.73;2.20;;;8.20;94.10;;;;;;5023198;28;20048;-86
2021/04/07 12:20:58;;;;;;;14.45;2.85;;;7.90;94.80;;;;;;5013177;28;20076;-85
2021/04/07 12:23:24;;;;;;;19.10;3.13;;;8.00;94.10;;;;;;5025078;28;20511;-86
2021/04/07 12:25:50;;;;;;;21.13;2.90;;;7.90;93.10;;;;;;5019552;28;20057;-86
2021/04/07 12:28:15;;;;;;;14.77;2.25;;;8.10;92.50;;;;;;5020916;28;20018;-88
2021/04/07 12:30:47;;;;;;;15.75;3.42;;;8.30;93.30;;;;;;5031479;28;20035;-86
2021/04/07 12:33:15;;;;;;;19.50;2.53;;;8.80;92.10;;;;;;5037176;28;20091;-86
2021/04/07 12:35:41;;;;;;;11.48;2.33;;;9.10;92.20;;;;;;5012891;28;20439;-85
2021/04/07 12:38:06;;;;;;;15.05;2.85;;;9.80;91.60;;;;;;5021194;28;20022;-86
2021/04/07 12:40:32;;;;;;;9.48;1.95;;;10.10;89.60;;;;;;5029693;28;20144;-85
2021/04/07 12:42:58;;;;;;;12.77;2.33;;;9.90;86.50;;;;;;5029803;28;20048;-87
2021/04/07 12:45:23;;;;;;;9.90;1.90;;;9.50;84.60;;;;;;5032544;28;20025;-87
2021/04/07 12:47:49;;;;;;;17.30;2.75;;;9.00;85.20;;;;;;5032322;28;20017;-87
2021/04/07 12:50:14;;;;;;;10.57;2.03;;;8.60;83.60;;;;;;5030690;28;20116;-86
2021/04/07 12:52:40;;;;;;;7.82;1.40;;;8.20;82.40;;;;;;5030109;28;20034;-86
2021/04/07 12:55:06;;;;;;;11.00;1.88;;;7.90;84.60;;;;;;5031927;28;20345;-87
2021/04/07 12:57:32;;;;;;;14.15;1.85;;;7.70;84.30;;;;;;5022007;28;20477;-85
2021/04/07 12:59:57;;;;;;;15.95;2.20;;;7.30;86.50;;;;;;5029594;28;20160;-88